Time;durP1;ratioP1;P1;durP2;ratioP2;P2;SDS_P1;SDS_P2;PMS_P1;PMS_P2;Temp;Humidity;BMP_temperature;BMP_pressure;BME280_temperature;BME280_humidity;BME280_pressure;Samples;Min_cycle;Max_cycle;Signal;HPM_P1;HPM_P2
2024/03/20 00:00:53;;;;;;;90.30;60.42;;;11.40;99.90;;;;;;5045869;28;20028;-78
2024/03/20 00:03:19;;;;;;;92.35;62.40;;;11.40;99.90;;;;;;5034348;28;20452;-78
2024/03/20 00:05:44;;;;;;;89.32;61.90;;;11.40;99.90;;;;;;5043401;28;20021;-78
2024/03/20 00:08:10;;;;;;;92.80;61.67;;;11.30;99.90;;;;;;5050974;28;20048;-77
2024/03/20 00:10:38;;;;;;;89.38;58.30;;;11.30;99.90;;;;;;5034537;28;20026;-77
2024/03/20 00:13:10;;;;;;;89.13;59.83;;;11.30;99.90;;;;;;5046792;28;20027;-77
2024/03/20 00:15:39;;;;;;;;;;;11.30;99.90;;;;;;5047622;28;20033;-77
2024/03/20 00:18:05;;;;;;;85.57;60.35;;;11.30;99.90;;;;;;5062229;28;19913;-76
2024/03/20 00:20:31;;;;;;;83.80;56.08;;;11.20;99.90;;;;;;5028581;28;20048;-77
2024/03/20 00:22:56;;;;;;;82.75;57.75;;;11.20;99.90;;;;;;5033155;28;20060;-77
2024/03/20 00:25:22;;;;;;;87.85;59.53;;;11.10;99.90;;;;;;5027420;28;20029;-77
2024/03/20 00:27:48;;;;;;;92.35;62.90;;;11.10;99.90;;;;;;5035913;28;20056;-77
2024/03/20 00:30:14;;;;;;;88.70;57.92;;;11.20;99.90;;;;;;5033918;28;20078;-77
2024/03/20 00:32:40;;;;;;;77.65;56.40;;;11.10;99.90;;;;;;5026348;28;20025;-77
2024/03/20 00:35:08;;;;;;;92.70;62.28;;;11.00;99.90;;;;;;5034399;28;20112;-77
2024/03/20 00:37:34;;;;;;;88.43;58.97;;;11.10;99.90;;;;;;5034017;28;20395;-77
2024/03/20 00:40:00;;;;;;;93.22;62.05;;;11.00;99.90;;;;;;5043440;28;20018;-77
2024/03/20 00:42:26;;;;;;;90.90;60.00;;;10.90;99.90;;;;;;5034766;28;20024;-77
2024/03/20 00:44:52;;;;;;;96.47;63.80;;;10.90;99.90;;;;;;5042638;28;20493;-77
2024/03/20 00:47:18;;;;;;;91.57;63.03;;;11.00;99.90;;;;;;5044967;28;20108;-77
2024/03/20 00:49:45;;;;;;;87.82;59.70;;;10.90;99.90;;;;;;5044983;28;20049;-77
2024/03/20 00:52:12;;;;;;;88.88;58.05;;;11.00;99.90;;;;;;5045670;28;20021;-77
2024/03/20 00:54:39;;;;;;;85.45;57.90;;;11.00;99.90;;;;;;5041831;28;20032;-77
2024/03/20 00:57:05;;;;;;;87.00;57.10;;;11.00;99.90;;;;;;5041830;28;20029;-77
2024/03/20 00:59:31;;;;;;;85.82;57.30;;;10.90;99.90;;;;;;5027261;28;20472;-77
2024/03/20 01:01:56;;;;;;;89.90;56.83;;;10.90;99.90;;;;;;5035389;28;20025;-77
2024/03/20 01:04:22;;;;;;;86.55;56.47;;;11.00;99.90;;;;;;5042607;28;20026;-77
2024/03/20 01:06:48;;;;;;;85.40;59.33;;;10.90;99.90;;;;;;5044036;28;20496;-77
2024/03/20 01:09:14;;;;;;;85.22;56.92;;;10.90;99.90;;;;;;5043048;28;20025;-77
2024/03/20 01:11:39;;;;;;;81.18;56.47;;;10.90;99.90;;;;;;5025251;28;20033;-77
2024/03/20 01:14:05;;;;;;;88.05;59.08;;;10.90;99.90;;;;;;5033755;28;20033;-77
2024/03/20 01:16:31;;;;;;;89.63;58.47;;;10.90;99.90;;;;;;5042321;28;20029;-77
2024/03/20 01:18:57;;;;;;;86.13;56.95;;;10.90;99.90;;;;;;5044893;28;20378;-77
2024/03/20 01:21:22;;;;;;;89.85;59.53;;;10.90;99.90;;;;;;5034730;28;20036;-77
2024/03/20 01:23:48;;;;;;;84.07;58.83;;;10.90;99.90;;;;;;5020187;28;20032;-77
2024/03/20 01:26:19;;;;;;;83.97;56.53;;;10.80;99.90;;;;;;5041235;28;20021;-77
2024/03/20 01:28:45;;;;;;;83.53;57.55;;;10.90;99.90;;;;;;5028145;28;20029;-77
2024/03/20 01:31:10;;;;;;;86.78;59.55;;;10.90;99.90;;;;;;5044518;28;20512;-77
2024/03/20 01:33:36;;;;;;;85.82;57.85;;;10.90;99.90;;;;;;5041220;28;20022;-77
2024/03/20 01:36:02;;;;;;;83.80;58.47;;;10.90;99.90;;;;;;5031937;28;20032;-77
2024/03/20 01:38:28;;;;;;;92.60;58.42;;;10.90;99.90;;;;;;5021154;28;20021;-77
2024/03/20 01:40:53;;;;;;;86.63;59.88;;;11.00;99.90;;;;;;5042260;28;20087;-77
2024/03/20 01:43:20;;;;;;;91.10;60.72;;;11.00;99.90;;;;;;5040727;28;20017;-77
2024/03/20 01:45:49;;;;;;;94.90;63.20;;;11.00;99.90;;;;;;5040724;28;20108;-77
2024/03/20 01:48:16;;;;;;;87.53;60.10;;;11.00;99.90;;;;;;5045760;28;20091;-77
2024/03/20 01:50:42;;;;;;;93.93;61.85;;;11.00;99.90;;;;;;5042385;28;20064;-77
2024/03/20 01:53:09;;;;;;;98.03;64.80;;;11.00;99.90;;;;;;5042913;28;20029;-77
2024/03/20 01:55:36;;;;;;;92.38;62.72;;;11.00;99.90;;;;;;5020737;28;20041;-77
2024/03/20 01:58:02;;;;;;;88.60;59.58;;;11.00;99.90;;;;;;5023601;28;20041;-77
2024/03/20 02:00:27;;;;;;;89.57;58.22;;;11.00;99.90;;;;;;5043360;28;20373;-77
2024/03/20 02:03:01;;;;;;;87.13;61.03;;;11.00;99.90;;;;;;5023195;28;20389;-77
2024/03/20 02:05:27;;;;;;;85.70;58.13;;;10.90;99.90;;;;;;5033001;28;20032;-77
2024/03/20 02:07:54;;;;;;;87.32;59.25;;;10.90;99.90;;;;;;5031854;28;20159;-77
2024/03/20 02:10:20;;;;;;;93.95;61.95;;;10.90;99.90;;;;;;5040035;28;20029;-77
2024/03/20 02:12:50;;;;;;;87.85;59.40;;;10.90;99.90;;;;;;5025726;28;20032;-77
2024/03/20 02:15:16;;;;;;;89.55;59.05;;;10.90;99.90;;;;;;5033564;28;20082;-77
2024/03/20 02:17:43;;;;;;;90.20;61.83;;;10.90;99.90;;;;;;5024890;28;20463;-77
2024/03/20 02:20:10;;;;;;;87.57;58.70;;;11.00;99.90;;;;;;5025967;28;20029;-77
2024/03/20 02:22:41;;;;;;;85.72;59.67;;;11.00;99.90;;;;;;5018349;28;20032;-77
2024/03/20 02:25:11;;;;;;;91.53;60.28;;;11.10;99.90;;;;;;5040186;28;20018;-77
2024/03/20 02:27:37;;;;;;;89.45;58.45;;;11.10;99.90;;;;;;5031069;28;20052;-77
2024/03/20 02:30:08;;;;;;;89.93;59.65;;;11.00;99.90;;;;;;5043546;28;20029;-77
2024/03/20 02:32:38;;;;;;;87.00;58.78;;;11.00;99.90;;;;;;5044038;28;20029;-77
2024/03/20 02:35:04;;;;;;;82.40;55.40;;;11.00;99.90;;;;;;5023011;28;20033;-77
2024/03/20 02:37:29;;;;;;;84.68;58.65;;;10.90;99.90;;;;;;5043709;28;20104;-77
2024/03/20 02:39:55;;;;;;;84.60;56.90;;;10.90;99.90;;;;;;5033446;28;20119;-77
2024/03/20 02:42:22;;;;;;;86.35;58.28;;;10.90;99.90;;;;;;5030523;28;20014;-77
2024/03/20 02:44:49;;;;;;;87.13;60.55;;;10.90;99.90;;;;;;5029493;28;20500;-77
2024/03/20 02:47:15;;;;;;;84.53;57.33;;;10.90;99.90;;;;;;5030380;28;20026;-77
2024/03/20 02:49:41;;;;;;;80.93;55.40;;;11.00;99.90;;;;;;5042121;28;20051;-77
2024/03/20 02:52:07;;;;;;;80.60;55.83;;;10.90;99.90;;;;;;5030813;28;20033;-77
2024/03/20 02:54:32;;;;;;;83.07;57.47;;;10.90;99.90;;;;;;5024198;28;20699;-77
2024/03/20 02:56:58;;;;;;;82.47;57.33;;;10.90;99.90;;;;;;5041181;28;20025;-77
2024/03/20 02:59:24;;;;;;;79.45;54.97;;;10.90;99.90;;;;;;5025779;28;20132;-78
2024/03/20 03:01:49;;;;;;;86.28;56.80;;;10.90;99.90;;;;;;5041161;28;20018;-78
2024/03/20 03:04:15;;;;;;;90.07;59.13;;;10.90;99.90;;;;;;5041960;28;20036;-78
2024/03/20 03:06:41;;;;;;;86.78;58.55;;;10.90;99.90;;;;;;5018608;28;20022;-77
2024/03/20 03:09:08;;;;;;;79.90;54.72;;;10.80;99.90;;;;;;5042672;28;20025;-77
2024/03/20 03:11:37;;;;;;;82.85;56.85;;;10.80;99.90;;;;;;5021972;28;20026;-77
2024/03/20 03:14:03;;;;;;;80.10;53.75;;;10.80;99.90;;;;;;5042712;28;20047;-77
2024/03/20 03:16:29;;;;;;;85.30;56.45;;;10.70;99.90;;;;;;5039381;28;20026;-78
2024/03/20 03:18:55;;;;;;;77.47;53.30;;;10.70;99.90;;;;;;5033194;28;20044;-77
2024/03/20 03:21:20;;;;;;;80.30;54.10;;;10.70;99.90;;;;;;5021680;28;20021;-78
2024/03/20 03:23:46;;;;;;;79.07;53.47;;;10.70;99.90;;;;;;5042413;28;20025;-77
2024/03/20 03:26:12;;;;;;;85.60;56.28;;;10.70;99.90;;;;;;5040309;28;20065;-77
2024/03/20 03:28:38;;;;;;;85.30;55.15;;;10.70;99.90;;;;;;5041809;28;20057;-77
2024/03/20 03:31:04;;;;;;;76.32;52.78;;;10.70;99.90;;;;;;5041891;28;20044;-77
2024/03/20 03:33:29;;;;;;;81.40;53.03;;;10.70;99.90;;;;;;5031532;28;20051;-77
2024/03/20 03:36:08;;;;;;;77.95;54.70;;;10.60;99.90;;;;;;5042633;28;20547;-77
2024/03/20 03:38:35;;;;;;;78.00;52.90;;;10.60;99.90;;;;;;5040107;28;20075;-77
2024/03/20 03:41:02;;;;;;;83.90;57.50;;;10.60;99.90;;;;;;5041699;28;20024;-77
2024/03/20 03:43:28;;;;;;;78.80;54.95;;;10.50;99.90;;;;;;5040375;28;20021;-78
2024/03/20 03:45:54;;;;;;;76.85;53.10;;;10.50;99.90;;;;;;5023518;28;20024;-77
2024/03/20 03:48:20;;;;;;;77.93;52.55;;;10.50;99.90;;;;;;5031468;28;20069;-78
2024/03/20 03:50:49;;;;;;;80.43;54.97;;;10.50;99.90;;;;;;5029185;28;20065;-77
2024/03/20 03:53:16;;;;;;;77.95;51.83;;;10.50;99.90;;;;;;5041025;28;20082;-77
2024/03/20 03:55:41;;;;;;;75.40;52.45;;;10.50;99.90;;;;;;5040609;28;20025;-78
2024/03/20 03:58:08;;;;;;;79.90;51.33;;;10.50;99.90;;;;;;5023654;28;20033;-77
2024/03/20 04:00:35;;;;;;;75.38;51.25;;;10.50;99.90;;;;;;5031923;28;20028;-78
2024/03/20 04:03:04;;;;;;;75.25;52.90;;;10.50;99.90;;;;;;5035918;28;20108;-77
2024/03/20 04:05:31;;;;;;;75.35;55.05;;;10.50;99.90;;;;;;5044332;28;20029;-77
2024/03/20 04:07:57;;;;;;;74.45;50.05;;;10.50;99.90;;;;;;5046195;28;20496;-77
2024/03/20 04:10:23;;;;;;;75.32;54.50;;;10.50;99.90;;;;;;5045873;28;20032;-77
2024/03/20 04:12:52;;;;;;;72.95;51.35;;;10.50;99.90;;;;;;5042567;28;20022;-78
2024/03/20 04:15:20;;;;;;;69.20;48.67;;;10.50;99.90;;;;;;5042342;28;20016;-77
2024/03/20 04:17:46;;;;;;;70.45;49.33;;;10.40;99.90;;;;;;5045895;28;20021;-77
2024/03/20 04:20:12;;;;;;;71.38;49.03;;;10.30;99.90;;;;;;5036428;28;20021;-77
2024/03/20 04:22:38;;;;;;;71.70;48.38;;;10.30;99.90;;;;;;5042364;28;20436;-77
2024/03/20 04:25:05;;;;;;;72.13;49.83;;;10.40;99.90;;;;;;5045555;28;20047;-77
2024/03/20 04:27:31;;;;;;;73.40;49.00;;;10.40;99.90;;;;;;5025060;28;20017;-78
2024/03/20 04:29:57;;;;;;;76.60;51.78;;;10.30;99.90;;;;;;5045037;28;20665;-77
2024/03/20 04:32:22;;;;;;;71.10;49.13;;;10.30;99.90;;;;;;5033595;28;20025;-77
2024/03/20 04:34:48;;;;;;;73.28;50.45;;;10.30;99.90;;;;;;5044111;28;20384;-77
2024/03/20 04:37:14;;;;;;;71.85;48.83;;;10.30;99.90;;;;;;5043894;28;20070;-77
2024/03/20 04:39:40;;;;;;;68.35;47.92;;;10.30;99.90;;;;;;5043370;28;20032;-77
2024/03/20 04:42:08;;;;;;;73.18;50.92;;;10.20;99.90;;;;;;5034801;28;20036;-77
2024/03/20 04:44:34;;;;;;;75.43;50.67;;;10.20;99.90;;;;;;5042879;28;20071;-77
2024/03/20 04:46:59;;;;;;;69.70;48.35;;;10.20;99.90;;;;;;5044784;28;20107;-77
2024/03/20 04:49:25;;;;;;;74.80;49.28;;;10.20;99.90;;;;;;5042060;28;20038;-77
2024/03/20 04:51:51;;;;;;;74.63;50.22;;;10.20;99.90;;;;;;5045512;28;20175;-77
2024/03/20 04:54:17;;;;;;;71.75;47.58;;;10.20;99.90;;;;;;5041750;28;20603;-78
2024/03/20 04:56:42;;;;;;;75.82;51.80;;;10.20;99.90;;;;;;5035599;28;20435;-77
2024/03/20 04:59:08;;;;;;;75.18;50.05;;;10.10;99.90;;;;;;5042213;28;20405;-77
2024/03/20 05:01:35;;;;;;;75.95;49.90;;;10.10;99.90;;;;;;5022988;28;20052;-77
2024/03/20 05:04:01;;;;;;;74.20;50.03;;;10.10;99.90;;;;;;5044000;28;20017;-77
2024/03/20 05:06:27;;;;;;;73.78;50.65;;;10.10;99.90;;;;;;5033215;28;20025;-77
2024/03/20 05:08:53;;;;;;;71.22;49.78;;;10.10;99.90;;;;;;5043194;28;20308;-77
2024/03/20 05:11:19;;;;;;;81.00;54.13;;;10.20;99.90;;;;;;5040680;28;20033;-78
2024/03/20 05:13:44;;;;;;;79.40;51.08;;;10.20;99.90;;;;;;5043315;28;20470;-78
2024/03/20 05:16:13;;;;;;;73.30;50.92;;;10.20;99.90;;;;;;5032649;28;20477;-77
2024/03/20 05:18:38;;;;;;;78.60;51.80;;;10.20;99.90;;;;;;5044756;28;20083;-77
2024/03/20 05:21:04;;;;;;;77.32;52.00;;;10.20;99.90;;;;;;5027094;28;20033;-77
2024/03/20 05:23:30;;;;;;;75.38;50.15;;;10.20;99.90;;;;;;5040734;28;20036;-77
2024/03/20 05:25:57;;;;;;;72.70;47.80;;;10.20;99.90;;;;;;5035064;28;20388;-77
2024/03/20 05:28:24;;;;;;;70.80;49.45;;;10.20;99.90;;;;;;5023167;28;20533;-77
2024/03/20 05:30:50;;;;;;;73.18;50.88;;;10.20;99.90;;;;;;5044575;28;20047;-77
2024/03/20 05:33:17;;;;;;;74.47;49.90;;;10.20;99.90;;;;;;5041292;28;20037;-77
2024/03/20 05:35:43;;;;;;;74.25;48.65;;;10.20;99.90;;;;;;5034446;28;20032;-77
2024/03/20 05:38:09;;;;;;;69.05;48.60;;;10.20;99.90;;;;;;5041681;28;20041;-77
2024/03/20 05:40:35;;;;;;;77.95;49.38;;;10.20;99.90;;;;;;5044799;28;20075;-77
2024/03/20 05:43:01;;;;;;;76.43;48.28;;;10.20;99.90;;;;;;5042809;28;20026;-77
2024/03/20 05:45:27;;;;;;;71.88;47.85;;;10.30;99.90;;;;;;5032669;28;20389;-77
2024/03/20 05:47:53;;;;;;;72.57;48.33;;;10.20;99.90;;;;;;5024457;28;20091;-78
2024/03/20 05:50:19;;;;;;;73.00;49.30;;;10.30;99.90;;;;;;5032416;28;20044;-78
2024/03/20 05:52:44;;;;;;;75.60;50.00;;;10.20;99.90;;;;;;5043412;28;20166;-78
2024/03/20 05:55:14;;;;;;;68.68;48.55;;;10.30;99.90;;;;;;5019996;28;20044;-77
2024/03/20 05:57:39;;;;;;;71.28;49.28;;;10.30;99.90;;;;;;5041055;28;20103;-77
2024/03/20 06:00:13;;;;;;;68.10;47.15;;;10.30;99.90;;;;;;5047489;28;20071;-77
2024/03/20 06:02:40;;;;;;;72.18;49.85;;;10.30;99.90;;;;;;5022708;28;20374;-78
2024/03/20 06:05:06;;;;;;;72.40;47.85;;;10.40;99.90;;;;;;5019259;28;20031;-77
2024/03/20 06:07:32;;;;;;;70.63;47.13;;;10.40;99.90;;;;;;5033675;28;20044;-78
2024/03/20 06:09:57;;;;;;;69.22;47.17;;;10.50;99.90;;;;;;5040469;28;20477;-77
2024/03/20 06:12:23;;;;;;;71.82;46.30;;;10.50;99.90;;;;;;5043860;28;20021;-77
2024/03/20 06:14:49;;;;;;;74.00;48.28;;;10.60;99.90;;;;;;5025733;28;20029;-77
2024/03/20 06:17:16;;;;;;;72.55;47.28;;;10.60;99.90;;;;;;5025656;28;20488;-77
2024/03/20 06:19:42;;;;;;;74.90;48.75;;;10.70;99.90;;;;;;5033849;28;20480;-77
2024/03/20 06:22:07;;;;;;;66.30;45.15;;;10.70;99.90;;;;;;5031507;28;20040;-77
2024/03/20 06:24:33;;;;;;;63.80;43.97;;;10.80;99.90;;;;;;5021169;28;20021;-77
2024/03/20 06:26:59;;;;;;;71.80;46.42;;;10.80;99.90;;;;;;5026202;28;20454;-78
2024/03/20 06:29:26;;;;;;;68.55;44.83;;;10.90;99.90;;;;;;5032336;28;20033;-76
2024/03/20 06:31:53;;;;;;;65.40;45.22;;;11.00;99.90;;;;;;5024225;28;20413;-76
2024/03/20 06:34:19;;;;;;;66.07;45.33;;;11.10;99.90;;;;;;5045118;28;20086;-76
2024/03/20 06:36:45;;;;;;;66.03;42.78;;;11.10;99.90;;;;;;5024717;28;20530;-76
2024/03/20 06:39:10;;;;;;;65.00;46.83;;;11.20;99.90;;;;;;5040327;28;20108;-76
2024/03/20 06:41:36;;;;;;;59.10;42.20;;;11.30;99.90;;;;;;5025195;28;20017;-76
2024/03/20 06:44:02;;;;;;;62.75;43.38;;;11.30;99.90;;;;;;5039795;28;20025;-76
2024/03/20 06:46:29;;;;;;;68.75;46.47;;;11.40;99.90;;;;;;5033567;28;20018;-76
2024/03/20 06:48:58;;;;;;;62.50;43.05;;;11.40;99.90;;;;;;5025359;28;20049;-76
2024/03/20 06:51:25;;;;;;;71.00;47.03;;;11.40;99.90;;;;;;5039485;28;20029;-76
2024/03/20 06:53:50;;;;;;;68.85;44.20;;;11.50;99.90;;;;;;5042655;28;20029;-76
2024/03/20 06:56:19;;;;;;;66.18;43.45;;;11.60;99.90;;;;;;5038430;28;20022;-76
2024/03/20 06:58:45;;;;;;;64.13;43.90;;;11.60;99.90;;;;;;5031232;28;20037;-76
2024/03/20 07:01:11;;;;;;;58.80;41.47;;;11.70;99.90;;;;;;5038762;28;20017;-76
2024/03/20 07:03:37;;;;;;;61.30;42.63;;;11.70;99.90;;;;;;5040501;28;20021;-76
2024/03/20 07:06:03;;;;;;;60.97;43.03;;;11.70;99.90;;;;;;5032377;28;20026;-76
2024/03/20 07:08:30;;;;;;;62.80;43.72;;;11.70;99.90;;;;;;5031396;28;20037;-76
2024/03/20 07:10:56;;;;;;;61.58;42.17;;;11.70;99.90;;;;;;5041224;28;20028;-76
2024/03/20 07:13:22;;;;;;;64.82;44.38;;;11.80;99.90;;;;;;5041572;28;20029;-76
2024/03/20 07:15:48;;;;;;;63.35;43.05;;;11.80;99.90;;;;;;5040715;28;20025;-76
2024/03/20 07:18:17;;;;;;;64.72;45.97;;;11.80;99.90;;;;;;5026604;28;20123;-76
2024/03/20 07:20:42;;;;;;;64.60;41.22;;;11.90;99.90;;;;;;5040275;28;20068;-76
2024/03/20 07:23:08;;;;;;;64.65;43.80;;;12.00;99.90;;;;;;5024279;28;20389;-76
2024/03/20 07:25:34;;;;;;;66.05;44.40;;;12.00;99.90;;;;;;5021808;28;20026;-76
2024/03/20 07:28:00;;;;;;;63.75;44.55;;;12.10;99.90;;;;;;5043057;28;20028;-76
2024/03/20 07:30:26;;;;;;;64.53;42.95;;;12.10;99.90;;;;;;5039382;28;20052;-76
2024/03/20 07:32:51;;;;;;;60.17;41.90;;;12.10;99.90;;;;;;5039147;28;20067;-76
2024/03/20 07:35:24;;;;;;;67.25;45.28;;;12.20;99.90;;;;;;5025363;28;20017;-76
2024/03/20 07:37:50;;;;;;;63.85;44.28;;;12.20;99.90;;;;;;5033414;28;20041;-75
2024/03/20 07:40:17;;;;;;;65.95;42.78;;;12.30;99.90;;;;;;5047190;28;20181;-76
2024/03/20 07:42:42;;;;;;;64.25;42.97;;;12.30;99.90;;;;;;5046197;28;20361;-76
2024/03/20 07:45:08;;;;;;;66.07;44.08;;;12.40;99.90;;;;;;5044092;28;20020;-76
2024/03/20 07:47:38;;;;;;;61.40;40.50;;;12.40;99.90;;;;;;5030783;28;20120;-76
2024/03/20 07:50:10;;;;;;;60.65;38.15;;;12.50;99.90;;;;;;5046396;28;20048;-76
2024/03/20 07:52:36;;;;;;;52.38;36.05;;;12.60;99.90;;;;;;5043491;28;20021;-76
2024/03/20 07:55:02;;;;;;;45.88;31.05;;;12.60;99.90;;;;;;5045428;28;20021;-76
2024/03/20 07:57:28;;;;;;;39.97;26.98;;;12.70;99.90;;;;;;5044214;28;20028;-76
2024/03/20 07:59:54;;;;;;;41.20;26.60;;;12.80;99.90;;;;;;5040932;28;20393;-76
2024/03/20 08:02:20;;;;;;;45.42;29.23;;;12.80;97.20;;;;;;5044653;28;20017;-77
2024/03/20 08:04:46;;;;;;;39.28;25.08;;;12.80;99.90;;;;;;5026213;28;20080;-77
2024/03/20 08:07:12;;;;;;;38.42;25.75;;;12.90;97.40;;;;;;5046340;28;20091;-77
2024/03/20 08:09:38;;;;;;;31.10;23.42;;;12.90;99.90;;;;;;5027602;28;20033;-77
2024/03/20 08:12:04;;;;;;;29.45;21.23;;;13.00;97.80;;;;;;5025320;28;20083;-77
2024/03/20 08:14:30;;;;;;;31.88;21.92;;;12.90;81.40;;;;;;5045849;28;20033;-77
2024/03/20 08:16:55;;;;;;;33.40;22.05;;;13.00;99.90;;;;;;5024614;28;20065;-77
2024/03/20 08:19:21;;;;;;;32.10;22.77;;;13.10;96.40;;;;;;5046238;28;20116;-77
2024/03/20 08:21:47;;;;;;;33.15;21.20;;;13.10;81.40;;;;;;5045651;28;20025;-77
2024/03/20 08:24:12;;;;;;;33.15;22.25;;;13.10;58.80;;;;;;5043031;28;20057;-77
2024/03/20 08:26:39;;;;;;;29.90;20.33;;;13.10;65.90;;;;;;5044886;28;20052;-77
2024/03/20 08:29:05;;;;;;;24.52;18.42;;;13.20;74.60;;;;;;5043527;28;20021;-77
2024/03/20 08:31:30;;;;;;;26.30;17.08;;;13.30;75.80;;;;;;5026451;28;20588;-77
2024/03/20 08:33:56;;;;;;;33.05;17.75;;;13.30;41.40;;;;;;5035964;28;20033;-77
2024/03/20 08:36:22;;;;;;;21.75;16.13;;;13.20;25.10;;;;;;5044552;28;20025;-77
2024/03/20 08:38:48;;;;;;;18.00;14.75;;;13.30;55.80;;;;;;5033421;28;20036;-77
2024/03/20 08:41:14;;;;;;;20.75;13.55;;;13.40;66.20;;;;;;5044815;28;20021;-77
2024/03/20 08:43:39;;;;;;;22.33;13.88;;;13.40;31.30;;;;;;5024017;28;20029;-77
2024/03/20 08:46:08;;;;;;;29.55;16.75;;;13.40;28.40;;;;;;5045247;28;20021;-77
2024/03/20 08:48:38;;;;;;;20.83;14.85;;;13.40;22.70;;;;;;5042624;28;20494;-77
2024/03/20 08:51:04;;;;;;;15.70;12.85;;;13.40;13.20;;;;;;5035700;28;20031;-77
2024/03/20 08:53:32;;;;;;;21.05;14.32;;;13.40;19.90;;;;;;5023907;28;20029;-77
2024/03/20 08:55:58;;;;;;;14.93;11.60;;;13.50;41.30;;;;;;5041754;28;20025;-77
2024/03/20 08:58:24;;;;;;;15.65;12.85;;;13.60;27.70;;;;;;5041803;28;20030;-77
2024/03/20 09:00:50;;;;;;;14.07;10.95;;;13.60;5.50;;;;;;5045157;28;20083;-77
2024/03/20 09:03:16;;;;;;;13.85;9.65;;;13.70;27.20;;;;;;5024125;28;20485;-77
2024/03/20 09:05:41;;;;;;;13.77;10.43;;;13.70;25.40;;;;;;5026435;28;20028;-77
2024/03/20 09:08:10;;;;;;;16.58;10.07;;;13.80;51.70;;;;;;5042848;28;20028;-77
2024/03/20 09:10:36;;;;;;;10.98;9.00;;;13.90;26.40;;;;;;5043796;28;20564;-77
2024/03/20 09:13:04;;;;;;;14.82;8.90;;;13.90;1.00;;;;;;5042923;28;20485;-77
2024/03/20 09:15:29;;;;;;;10.30;8.20;;;13.80;1.00;;;;;;5043395;28;20489;-77
2024/03/20 09:17:56;;;;;;;10.90;8.05;;;13.90;10.70;;;;;;5032204;28;20022;-77
2024/03/20 09:20:25;;;;;;;15.85;9.02;;;14.00;1.00;;;;;;5043528;28;20040;-77
2024/03/20 09:22:52;;;;;;;16.05;9.15;;;14.10;1.00;;;;;;5041285;28;20021;-77
2024/03/20 09:25:19;;;;;;;13.98;9.52;;;14.10;5.00;;;;;;5023225;28;20022;-77
2024/03/20 09:27:45;;;;;;;15.57;11.98;;;14.20;1.90;;;;;;5041198;28;20086;-77
2024/03/20 09:30:18;;;;;;;9.52;6.93;;;14.20;1.00;;;;;;5033022;28;20074;-77
2024/03/20 09:32:47;;;;;;;11.40;7.30;;;14.30;1.00;;;;;;5043006;28;20173;-77
2024/03/20 09:35:13;;;;;;;12.13;9.18;;;14.40;1.00;;;;;;5042736;28;20022;-77
2024/03/20 09:37:39;;;;;;;9.77;7.75;;;14.50;1.00;;;;;;5033491;28;20029;-77
2024/03/20 09:40:10;;;;;;;11.32;7.65;;;14.60;1.00;;;;;;5041894;28;20025;-77
2024/03/20 09:42:37;;;;;;;11.32;7.95;;;14.70;99.90;;;;;;5033227;28;20614;-77
2024/03/20 09:45:03;;;;;;;11.13;8.65;;;14.70;1.00;;;;;;5044937;28;20473;-77
2024/03/20 09:47:31;;;;;;;11.98;9.45;;;14.80;1.00;;;;;;5041690;28;20045;-77
2024/03/20 09:49:59;;;;;;;15.07;10.80;;;14.80;1.00;;;;;;5044323;28;20068;-77
2024/03/20 09:52:26;;;;;;;16.15;10.25;;;14.80;1.00;;;;;;5033581;28;20039;-77
2024/03/20 09:54:53;;;;;;;17.10;11.48;;;14.80;1.00;;;;;;5026478;28;20056;-77
2024/03/20 09:57:22;;;;;;;12.38;9.93;;;14.80;1.00;;;;;;5036891;28;20032;-77
2024/03/20 09:59:52;;;;;;;15.00;10.35;;;15.00;1.00;;;;;;5031225;28;20374;-77
2024/03/20 10:02:18;;;;;;;15.25;9.90;;;15.20;1.00;;;;;;5043381;28;20431;-77
2024/03/20 10:04:45;;;;;;;12.75;9.73;;;15.30;1.00;;;;;;5040954;28;20017;-77
2024/03/20 10:07:14;;;;;;;14.18;9.23;;;15.30;1.00;;;;;;5034062;28;20492;-77
2024/03/20 10:09:46;;;;;;;15.18;9.60;;;15.40;1.00;;;;;;5031532;28;20029;-77
2024/03/20 10:12:14;;;;;;;16.05;9.80;;;15.50;1.00;;;;;;5033190;28;20082;-77
2024/03/20 10:14:40;;;;;;;10.70;9.48;;;15.60;99.90;;;;;;5041082;28;20026;-77
2024/03/20 10:17:17;;;;;;;12.43;9.27;;;15.50;99.90;;;;;;5033410;28;20053;-77
2024/03/20 10:19:44;;;;;;;14.10;9.43;;;15.50;99.90;;;;;;5025332;28;20029;-77
2024/03/20 10:22:10;;;;;;;14.07;10.55;;;15.60;99.90;;;;;;5042100;28;20047;-77
2024/03/20 10:24:37;;;;;;;20.52;12.77;;;15.70;99.90;;;;;;5041313;28;20078;-77
2024/03/20 10:27:05;;;;;;;20.00;13.95;;;15.70;99.90;;;;;;5032589;28;20017;-77
2024/03/20 10:29:33;;;;;;;21.00;13.82;;;15.70;99.90;;;;;;5041073;28;20401;-77
2024/03/20 10:31:59;;;;;;;21.20;14.13;;;15.70;1.00;;;;;;5033935;28;20647;-77
2024/03/20 10:34:29;;;;;;;21.85;14.07;;;15.70;99.90;;;;;;5042648;28;20037;-77
2024/03/20 10:36:56;;;;;;;17.20;13.05;;;15.80;99.90;;;;;;5040792;28;20034;-77
2024/03/20 10:39:24;;;;;;;24.75;14.70;;;15.80;99.90;;;;;;5042610;28;20021;-77
2024/03/20 10:41:54;;;;;;;24.05;15.52;;;15.90;1.00;;;;;;5031293;28;20025;-76
2024/03/20 10:44:22;;;;;;;24.75;16.90;;;15.90;1.00;;;;;;5042410;28;20021;-77
2024/03/20 10:46:52;;;;;;;22.27;16.05;;;15.90;99.90;;;;;;5040799;28;20037;-77
2024/03/20 10:49:22;;;;;;;26.00;16.98;;;15.90;1.00;;;;;;5044139;28;20123;-76
2024/03/20 10:51:50;;;;;;;25.35;17.50;;;16.00;1.00;;;;;;5031846;28;20033;-76
2024/03/20 10:54:18;;;;;;;23.00;16.05;;;16.00;1.00;;;;;;5041797;28;20024;-76
2024/03/20 10:56:55;;;;;;;23.90;16.17;;;16.00;1.00;;;;;;5031605;28;20030;-76
2024/03/20 10:59:22;;;;;;;25.30;15.75;;;16.00;1.00;;;;;;5030851;28;20261;-76
2024/03/20 11:02:05;;;;;;;20.45;14.30;;;16.20;99.90;;;;;;5043570;28;20051;-77
2024/03/20 11:04:41;;;;;;;24.83;15.75;;;16.30;99.90;;;;;;5039921;28;20533;-76
2024/03/20 11:07:26;;;;;;;19.77;15.02;;;16.50;1.00;;;;;;5031974;28;20048;-76
2024/03/20 11:09:52;;;;;;;21.13;15.48;;;16.60;99.90;;;;;;5039843;28;20037;-76
2024/03/20 11:12:44;;;;;;;25.23;15.57;;;16.60;99.90;;;;;;5047066;28;20028;-76
2024/03/20 11:15:18;;;;;;;22.33;13.82;;;16.60;10.10;;;;;;5033716;28;20132;-76
2024/03/20 11:17:49;;;;;;;22.30;14.68;;;16.60;99.90;;;;;;5046582;28;20025;-76
2024/03/20 11:20:33;;;;;;;17.50;13.75;;;16.80;99.90;;;;;;5043476;28;20079;-77
2024/03/20 11:23:20;;;;;;;19.02;13.90;;;16.90;99.90;;;;;;5045241;28;20068;-76
2024/03/20 11:25:46;;;;;;;17.45;13.00;;;16.90;99.90;;;;;;5043541;28;20431;-76
2024/03/20 11:28:13;;;;;;;20.85;13.68;;;16.90;20.00;;;;;;5043622;28;20022;-76
2024/03/20 11:30:39;;;;;;;20.02;14.10;;;16.80;99.90;;;;;;5037237;28;20025;-76
2024/03/20 11:33:07;;;;;;;19.10;13.20;;;16.90;86.50;;;;;;5025125;28;20036;-76
2024/03/20 11:35:33;;;;;;;18.75;13.25;;;17.00;99.90;;;;;;5043063;28;20056;-76
2024/03/20 11:38:00;;;;;;;15.80;13.60;;;17.10;99.90;;;;;;5046620;28;20041;-76
2024/03/20 11:40:25;;;;;;;19.58;13.82;;;17.20;99.90;;;;;;5025803;28;20029;-77
2024/03/20 11:42:54;;;;;;;17.80;12.70;;;17.30;99.90;;;;;;5045945;28;20029;-76
2024/03/20 11:45:23;;;;;;;15.70;12.52;;;17.50;99.90;;;;;;5043940;28;20496;-76
2024/03/20 11:47:49;;;;;;;19.40;13.05;;;17.60;1.00;;;;;;5046362;28;20025;-76
2024/03/20 11:50:15;;;;;;;17.60;13.13;;;17.60;30.00;;;;;;5036016;28;20079;-77
2024/03/20 11:52:41;;;;;;;18.23;12.93;;;17.70;1.00;;;;;;5026391;28;20025;-76
2024/03/20 11:55:14;;;;;;;16.45;12.23;;;17.80;1.00;;;;;;5027133;28;20041;-76
2024/03/20 11:57:42;;;;;;;18.17;13.93;;;17.80;99.90;;;;;;5045184;28;20015;-76
2024/03/20 12:00:17;;;;;;;17.92;13.70;;;17.80;99.90;;;;;;5028395;28;20087;-76
2024/03/20 12:02:45;;;;;;;22.63;14.05;;;18.00;4.80;;;;;;5042915;28;20057;-76
2024/03/20 12:05:12;;;;;;;20.08;13.48;;;18.10;1.00;;;;;;5036650;28;20480;-76
2024/03/20 12:07:41;;;;;;;22.77;13.40;;;18.20;1.00;;;;;;5043021;28;20022;-76
2024/03/20 12:10:34;;;;;;;18.80;13.98;;;18.30;99.90;;;;;;5046769;28;20017;-76
2024/03/20 12:13:00;;;;;;;26.75;13.05;;;18.40;1.00;;;;;;5024769;28;20143;-76
2024/03/20 12:15:27;;;;;;;20.30;12.27;;;18.60;1.00;;;;;;5045048;28;20120;-76
2024/03/20 12:17:54;;;;;;;17.77;12.40;;;18.60;99.90;;;;;;5046017;28;20028;-75
2024/03/20 12:20:20;;;;;;;21.77;12.02;;;18.50;99.90;;;;;;5043935;28;20106;-76
2024/03/20 12:22:45;;;;;;;15.80;10.60;;;18.70;99.90;;;;;;5041951;28;20065;-76
2024/03/20 12:25:14;;;;;;;13.95;11.38;;;18.60;99.90;;;;;;5043545;28;20033;-76
2024/03/20 12:27:40;;;;;;;14.82;10.48;;;18.50;99.90;;;;;;5045911;28;20021;-76
2024/03/20 12:30:10;;;;;;;12.57;10.35;;;18.60;99.90;;;;;;5044653;28;20095;-76